Time;durP1;ratioP1;P1;durP2;ratioP2;P2;SDS_P1;SDS_P2;PMS_P1;PMS_P2;Temp;Humidity;BMP_temperature;BMP_pressure;BME280_temperature;BME280_humidity;BME280_pressure;Samples;Min_cycle;Max_cycle;Signal;HPM_P1;HPM_P2
2023/07/07 00:01:39;;;;;;;3.85;1.65;;;;;;;;;;6206755;23;20346;-85
2023/07/07 00:04:05;;;;;;;1.92;1.50;;;;;;;;;;6206672;23;20055;-84
2023/07/07 00:06:31;;;;;;;4.50;1.48;;;;;;;;;;6207548;23;20016;-85
2023/07/07 00:08:57;;;;;;;1.50;1.40;;;;;;;;;;6207708;23;20009;-84
2023/07/07 00:11:23;;;;;;;3.75;1.50;;;;;;;;;;6207045;23;20020;-85
2023/07/07 00:13:52;;;;;;;2.08;1.70;;;;;;;;;;6206362;23;20442;-85
2023/07/07 00:16:20;;;;;;;2.20;1.60;;;;;;;;;;6206424;23;20016;-85
2023/07/07 00:18:46;;;;;;;3.05;1.70;;;;;;;;;;6207296;23;20012;-85
2023/07/07 00:21:12;;;;;;;2.40;2.13;;;;;;;;;;6206390;23;20092;-85
2023/07/07 00:23:38;;;;;;;5.57;2.40;;;;;;;;;;6208233;23;20017;-85
2023/07/07 00:26:06;;;;;;;3.17;2.10;;;;;;;;;;6208932;23;20066;-84
2023/07/07 00:28:33;;;;;;;3.03;2.22;;;;;;;;;;6208372;23;20013;-85
2023/07/07 00:30:59;;;;;;;2.40;2.20;;;;;;;;;;6205368;23;20446;-85
2023/07/07 00:33:25;;;;;;;3.03;1.92;;;;;;;;;;6208524;23;20020;-85
2023/07/07 00:35:51;;;;;;;2.47;1.60;;;;;;;;;;6206366;23;20125;-85
2023/07/07 00:38:18;;;;;;;2.72;1.58;;;;;;;;;;6205983;23;20028;-85
2023/07/07 00:40:44;;;;;;;2.20;1.63;;;;;;;;;;6181416;23;20092;-85
2023/07/07 00:43:15;;;;;;;2.40;1.77;;;;;;;;;;6206682;23;20067;-85
2023/07/07 00:45:41;;;;;;;4.18;2.17;;;;;;;;;;6206605;23;20052;-85
2023/07/07 00:48:09;;;;;;;2.35;2.08;;;;;;;;;;6205903;23;20017;-86
2023/07/07 00:50:43;;;;;;;3.15;1.80;;;;;;;;;;6208268;23;20438;-85
2023/07/07 00:53:09;;;;;;;2.20;1.80;;;;;;;;;;6207726;23;20008;-85
2023/07/07 00:55:43;;;;;;;1.83;1.58;;;;;;;;;;6208582;23;20110;-85
2023/07/07 00:58:11;;;;;;;2.67;1.73;;;;;;;;;;6205943;23;20452;-85
2023/07/07 01:00:38;;;;;;;2.72;1.90;;;;;;;;;;6207154;23;20035;-85
2023/07/07 01:03:09;;;;;;;1.77;1.60;;;;;;;;;;6205218;23;20054;-85
2023/07/07 01:05:37;;;;;;;3.60;2.00;;;;;;;;;;6205906;23;20063;-85
2023/07/07 01:08:03;;;;;;;2.58;2.00;;;;;;;;;;6205593;23;20019;-85
2023/07/07 01:10:29;;;;;;;2.55;1.52;;;;;;;;;;6181895;23;20514;-85
2023/07/07 01:12:55;;;;;;;2.67;1.77;;;;;;;;;;6205905;23;20358;-85
2023/07/07 01:15:22;;;;;;;3.03;2.03;;;;;;;;;;6205786;23;20462;-85
2023/07/07 01:18:04;;;;;;;2.83;2.10;;;;;;;;;;6208410;23;20016;-86
2023/07/07 01:20:33;;;;;;;2.30;1.90;;;;;;;;;;6206010;23;20020;-85
2023/07/07 01:23:18;;;;;;;3.42;1.70;;;;;;;;;;6207785;23;20070;-85
2023/07/07 01:25:50;;;;;;;2.63;2.13;;;;;;;;;;6205566;23;20048;-85
2023/07/07 01:28:24;;;;;;;4.63;2.35;;;;;;;;;;6206121;23;20378;-85
2023/07/07 01:30:57;;;;;;;3.88;2.47;;;;;;;;;;6207856;23;20326;-85
2023/07/07 01:33:25;;;;;;;3.55;2.28;;;;;;;;;;6208231;23;20036;-86
2023/07/07 01:35:51;;;;;;;3.20;2.70;;;;;;;;;;6207165;23;20398;-85
2023/07/07 01:38:31;;;;;;;4.53;2.50;;;;;;;;;;6206911;23;20333;-85
2023/07/07 01:41:08;;;;;;;3.60;3.30;;;;;;;;;;6205480;23;20015;-85
2023/07/07 01:43:40;;;;;;;3.63;2.65;;;;;;;;;;6208434;23;20083;-85
2023/07/07 01:46:21;;;;;;;3.38;2.38;;;;;;;;;;6207646;23;20036;-85
2023/07/07 01:48:53;;;;;;;4.75;2.60;;;;;;;;;;6207336;23;20024;-85
2023/07/07 01:51:21;;;;;;;3.75;2.78;;;;;;;;;;6207551;23;20012;-86
2023/07/07 01:53:48;;;;;;;4.30;3.35;;;;;;;;;;6205266;23;20339;-85
2023/07/07 01:56:17;;;;;;;3.75;3.17;;;;;;;;;;6206070;23;20024;-86
2023/07/07 01:58:44;;;;;;;6.07;3.67;;;;;;;;;;6207328;23;20013;-86
2023/07/07 02:01:10;;;;;;;5.53;4.55;;;;;;;;;;6205693;23;20008;-86
2023/07/07 02:03:36;;;;;;;5.25;4.05;;;;;;;;;;6206394;23;20513;-85
2023/07/07 02:06:03;;;;;;;6.55;4.07;;;;;;;;;;6206546;23;20023;-86
2023/07/07 02:08:29;;;;;;;6.95;4.20;;;;;;;;;;6205318;23;20009;-85
2023/07/07 02:10:55;;;;;;;6.65;4.70;;;;;;;;;;6207666;23;20414;-86
2023/07/07 02:13:21;;;;;;;5.25;4.60;;;;;;;;;;6206266;23;20012;-86
2023/07/07 02:15:47;;;;;;;8.32;4.90;;;;;;;;;;6206272;23;20052;-85
2023/07/07 02:18:13;;;;;;;8.25;4.43;;;;;;;;;;6205356;23;20012;-86
2023/07/07 02:20:39;;;;;;;7.07;4.25;;;;;;;;;;6207221;23;20178;-85
2023/07/07 02:23:05;;;;;;;6.68;4.90;;;;;;;;;;6205349;23;20067;-86
2023/07/07 02:25:31;;;;;;;5.82;4.90;;;;;;;;;;6205976;23;20454;-86
2023/07/07 02:27:57;;;;;;;7.72;5.03;;;;;;;;;;6206294;23;20012;-86
2023/07/07 02:30:23;;;;;;;6.82;5.22;;;;;;;;;;6207255;23;20043;-85
2023/07/07 02:32:50;;;;;;;6.65;5.03;;;;;;;;;;6205827;23;20427;-85
2023/07/07 02:35:16;;;;;;;8.15;6.18;;;;;;;;;;6205867;23;20410;-86
2023/07/07 02:37:42;;;;;;;7.70;5.57;;;;;;;;;;6205724;23;20016;-86
2023/07/07 02:40:09;;;;;;;7.10;5.65;;;;;;;;;;6206251;23;20434;-86
2023/07/07 02:42:35;;;;;;;8.40;5.43;;;;;;;;;;6208016;23;20012;-86
2023/07/07 02:45:01;;;;;;;7.32;5.70;;;;;;;;;;6208038;23;20066;-86
2023/07/07 02:47:28;;;;;;;6.43;5.75;;;;;;;;;;6205843;23;20434;-86
2023/07/07 02:49:54;;;;;;;8.45;6.57;;;;;;;;;;6205785;23;20312;-86
2023/07/07 02:52:20;;;;;;;6.53;5.60;;;;;;;;;;6205338;23;20016;-86
2023/07/07 02:54:46;;;;;;;6.55;5.50;;;;;;;;;;6203549;23;20016;-86
2023/07/07 02:57:12;;;;;;;8.32;7.43;;;;;;;;;;6206697;23;20071;-86
2023/07/07 02:59:38;;;;;;;8.38;6.43;;;;;;;;;;6206488;23;20012;-86
2023/07/07 03:02:06;;;;;;;10.80;7.13;;;;;;;;;;6204526;23;20023;-86
2023/07/07 03:04:32;;;;;;;8.95;6.82;;;;;;;;;;6206931;23;20013;-86
2023/07/07 03:06:58;;;;;;;9.57;7.32;;;;;;;;;;6205787;23;20016;-86
2023/07/07 03:09:24;;;;;;;8.80;6.93;;;;;;;;;;6205758;23;20504;-86
2023/07/07 03:11:50;;;;;;;10.07;7.75;;;;;;;;;;6204280;23;20044;-86
2023/07/07 03:14:19;;;;;;;10.55;7.35;;;;;;;;;;6206770;23;20016;-86
2023/07/07 03:16:51;;;;;;;8.82;7.18;;;;;;;;;;6205234;23;20837;-86
2023/07/07 03:19:18;;;;;;;9.68;6.90;;;;;;;;;;6205152;23;20016;-86
2023/07/07 03:21:44;;;;;;;9.50;7.18;;;;;;;;;;6205969;23;20020;-86
2023/07/07 03:24:10;;;;;;;10.75;6.75;;;;;;;;;;6205392;23;20079;-86
2023/07/07 03:26:36;;;;;;;8.48;6.70;;;;;;;;;;6206368;23;20097;-86
2023/07/07 03:29:03;;;;;;;8.27;6.63;;;;;;;;;;6208593;23;20012;-87
2023/07/07 03:31:30;;;;;;;8.90;6.82;;;;;;;;;;6208413;23;20017;-86
2023/07/07 03:33:58;;;;;;;10.15;7.15;;;;;;;;;;6206709;23;20009;-86
2023/07/07 03:36:25;;;;;;;8.93;6.47;;;;;;;;;;6207462;23;20017;-86
2023/07/07 03:38:51;;;;;;;9.57;6.57;;;;;;;;;;6207213;23;20031;-87
2023/07/07 03:41:19;;;;;;;10.30;8.18;;;;;;;;;;6205337;23;20386;-86
2023/07/07 03:43:45;;;;;;;11.25;7.45;;;;;;;;;;6207277;23;20017;-87
2023/07/07 03:46:12;;;;;;;11.43;8.02;;;;;;;;;;6206582;23;20158;-86
2023/07/07 03:48:39;;;;;;;11.85;8.02;;;;;;;;;;6209412;23;20096;-87
2023/07/07 03:51:05;;;;;;;11.45;7.35;;;;;;;;;;6208050;23;20016;-86
2023/07/07 03:53:32;;;;;;;11.48;7.30;;;;;;;;;;6209899;23;20058;-87
2023/07/07 03:55:59;;;;;;;10.07;7.63;;;;;;;;;;6206088;23;20021;-86
2023/07/07 03:58:26;;;;;;;10.98;7.85;;;;;;;;;;6208862;23;20311;-87
2023/07/07 04:00:52;;;;;;;11.68;7.18;;;;;;;;;;6204608;23;20031;-86
2023/07/07 04:03:19;;;;;;;11.45;7.60;;;;;;;;;;6206596;23;20016;-87
2023/07/07 04:05:46;;;;;;;10.23;7.78;;;;;;;;;;6208720;23;20056;-87
2023/07/07 04:08:12;;;;;;;13.93;8.25;;;;;;;;;;6206825;23;20044;-87
2023/07/07 04:10:41;;;;;;;11.32;8.20;;;;;;;;;;6207310;23;20084;-86
2023/07/07 04:13:08;;;;;;;12.57;8.98;;;;;;;;;;6206760;23;20411;-87
2023/07/07 04:15:34;;;;;;;11.57;8.10;;;;;;;;;;6206177;23;20505;-87
2023/07/07 04:18:00;;;;;;;9.20;7.95;;;;;;;;;;6206536;23;20035;-86
2023/07/07 04:20:27;;;;;;;10.18;7.75;;;;;;;;;;6206570;23;20078;-86
2023/07/07 04:22:53;;;;;;;13.65;8.75;;;;;;;;;;6208435;23;20051;-86
2023/07/07 04:25:19;;;;;;;10.50;8.10;;;;;;;;;;6208982;23;20067;-86
2023/07/07 04:27:45;;;;;;;13.45;8.93;;;;;;;;;;6208745;23;20009;-86
2023/07/07 04:30:12;;;;;;;13.02;7.47;;;;;;;;;;6205165;23;20021;-86
2023/07/07 04:32:39;;;;;;;12.68;8.95;;;;;;;;;;6208914;23;20338;-86
2023/07/07 04:35:06;;;;;;;12.45;8.27;;;;;;;;;;6207532;23;20026;-86
2023/07/07 04:37:32;;;;;;;10.70;8.48;;;;;;;;;;6206990;23;20458;-86
2023/07/07 04:39:58;;;;;;;13.75;9.30;;;;;;;;;;6206740;23;20390;-86
2023/07/07 04:42:25;;;;;;;11.27;8.45;;;;;;;;;;6206081;23;20109;-85
2023/07/07 04:44:51;;;;;;;11.63;8.45;;;;;;;;;;6207175;23;20337;-86
2023/07/07 04:47:17;;;;;;;11.82;7.80;;;;;;;;;;6206490;23;20013;-85
2023/07/07 04:49:43;;;;;;;12.63;8.15;;;;;;;;;;6207909;23;20005;-86
2023/07/07 04:52:09;;;;;;;11.18;8.18;;;;;;;;;;6206169;23;20009;-85
2023/07/07 04:54:36;;;;;;;14.90;8.60;;;;;;;;;;6206975;23;20017;-84
2023/07/07 04:57:03;;;;;;;11.77;8.80;;;;;;;;;;6203293;23;20016;-84
2023/07/07 04:59:31;;;;;;;12.00;8.05;;;;;;;;;;6206625;23;20009;-84
2023/07/07 05:01:57;;;;;;;12.27;8.90;;;;;;;;;;6206290;23;20095;-84
2023/07/07 05:04:23;;;;;;;12.68;8.55;;;;;;;;;;6206474;23;20027;-85
2023/07/07 05:06:49;;;;;;;12.43;8.65;;;;;;;;;;6207804;23;20326;-85
2023/07/07 05:09:16;;;;;;;14.15;8.93;;;;;;;;;;6206100;23;20416;-86
2023/07/07 05:11:42;;;;;;;13.60;8.70;;;;;;;;;;6205925;23;20017;-87
2023/07/07 05:14:08;;;;;;;11.73;8.60;;;;;;;;;;6178944;23;20032;-85
2023/07/07 05:16:38;;;;;;;12.38;8.50;;;;;;;;;;6208124;23;20023;-85
2023/07/07 05:19:04;;;;;;;13.05;8.63;;;;;;;;;;6205661;23;20096;-84
2023/07/07 05:21:31;;;;;;;13.13;8.93;;;;;;;;;;6208928;23;20087;-84
2023/07/07 05:23:57;;;;;;;14.23;9.60;;;;;;;;;;6205496;23;20384;-84
2023/07/07 05:26:27;;;;;;;10.93;8.15;;;;;;;;;;6205526;23;20095;-84
2023/07/07 05:28:54;;;;;;;;;;;;;;;;;;6207615;23;20016;-84
2023/07/07 05:31:20;;;;;;;12.05;7.63;;;;;;;;;;6206481;23;20329;-84
2023/07/07 05:33:46;;;;;;;10.50;8.25;;;;;;;;;;6205980;23;20016;-84
2023/07/07 05:36:12;;;;;;;9.15;7.80;;;;;;;;;;6204189;23;20016;-84
2023/07/07 05:38:40;;;;;;;10.63;7.53;;;;;;;;;;6205498;23;20028;-84
2023/07/07 05:41:06;;;;;;;11.75;8.30;;;;;;;;;;6206778;23;20016;-84
2023/07/07 09:22:12;;;;;;;4.07;1.63;;;;;;;;;;6219514;22;1264581;-84
2023/07/07 09:24:53;;;;;;;1.65;1.15;;;;;;;;;;6206896;23;20406;-86
2023/07/07 09:27:30;;;;;;;2.47;1.35;;;;;;;;;;6206111;23;20028;-87
2023/07/07 09:30:01;;;;;;;2.88;1.63;;;;;;;;;;6205973;23;20338;-86
2023/07/07 09:32:27;;;;;;;1.80;1.52;;;;;;;;;;6203282;23;20021;-85
2023/07/07 09:34:53;;;;;;;1.95;1.48;;;;;;;;;;6207271;23;20013;-86
2023/07/07 09:37:25;;;;;;;2.85;1.60;;;;;;;;;;6205714;23;20031;-85
2023/07/07 09:40:08;;;;;;;2.88;1.60;;;;;;;;;;6204682;23;20013;-86
2023/07/07 09:42:37;;;;;;;1.42;1.10;;;;;;;;;;6205844;23;20047;-85
2023/07/07 09:45:17;;;;;;;1.40;1.13;;;;;;;;;;6205211;23;20087;-83
2023/07/07 09:47:48;;;;;;;1.90;1.48;;;;;;;;;;6203359;23;20021;-82
2023/07/07 09:50:15;;;;;;;3.97;1.60;;;;;;;;;;6204585;23;20020;-84
2023/07/07 09:52:49;;;;;;;2.00;1.63;;;;;;;;;;6206621;23;20032;-84
2023/07/07 09:55:18;;;;;;;1.77;1.38;;;;;;;;;;6205108;23;20044;-85
2023/07/07 09:57:48;;;;;;;2.08;1.30;;;;;;;;;;6204560;23;20012;-84
2023/07/07 10:00:14;;;;;;;;;;;;;;;;;;6207675;23;20092;-83
2023/07/07 10:02:45;;;;;;;3.75;1.50;;;;;;;;;;6206494;23;19963;-83
2023/07/07 10:05:13;;;;;;;2.30;1.50;;;;;;;;;;6207469;23;20087;-82
2023/07/07 10:07:40;;;;;;;2.20;1.40;;;;;;;;;;6207195;23;20096;-89
2023/07/07 10:10:07;;;;;;;2.80;1.52;;;;;;;;;;6205326;23;20067;-83
2023/07/07 10:12:33;;;;;;;4.35;1.73;;;;;;;;;;6206649;23;20439;-84
2023/07/07 10:14:59;;;;;;;2.47;1.20;;;;;;;;;;6205806;23;20338;-84
2023/07/07 10:17:44;;;;;;;3.08;1.55;;;;;;;;;;6178624;23;20086;-83
2023/07/07 10:20:10;;;;;;;2.58;1.70;;;;;;;;;;6206193;23;20089;-84
2023/07/07 10:22:36;;;;;;;3.92;1.80;;;;;;;;;;6202298;23;20028;-85
2023/07/07 10:25:05;;;;;;;1.98;1.20;;;;;;;;;;6205315;23;20383;-86
2023/07/07 10:27:31;;;;;;;3.38;1.48;;;;;;;;;;6208083;23;20009;-79
2023/07/07 10:30:03;;;;;;;3.30;1.77;;;;;;;;;;6208036;23;20017;-81
2023/07/07 10:32:29;;;;;;;3.63;1.65;;;;;;;;;;6207373;23;20438;-82
2023/07/07 10:34:58;;;;;;;2.35;1.40;;;;;;;;;;6207735;23;20350;-82
2023/07/07 10:37:25;;;;;;;3.25;1.55;;;;;;;;;;6207541;23;20369;-82
2023/07/07 10:39:52;;;;;;;3.13;1.42;;;;;;;;;;6206684;23;20346;-82
2023/07/07 10:42:20;;;;;;;1.95;1.30;;;;;;;;;;6208583;23;20012;-83
2023/07/07 10:44:46;;;;;;;3.00;1.45;;;;;;;;;;6208192;23;20052;-82
2023/07/07 10:47:14;;;;;;;1.60;1.27;;;;;;;;;;6207170;23;20013;-82
2023/07/07 10:49:40;;;;;;;2.20;1.40;;;;;;;;;;6206696;23;20016;-82
2023/07/07 10:52:12;;;;;;;1.75;1.52;;;;;;;;;;6207672;23;20020;-81
2023/07/07 10:54:50;;;;;;;3.75;1.20;;;;;;;;;;6204655;23;20016;-84
2023/07/07 10:57:23;;;;;;;2.70;1.63;;;;;;;;;;6207008;23;20012;-82
2023/07/07 10:59:52;;;;;;;1.77;1.13;;;;;;;;;;6207538;23;20016;-81
2023/07/07 11:02:51;;;;;;;2.22;1.42;;;;;;;;;;6205886;23;20023;-81
2023/07/07 11:05:17;;;;;;;1.75;1.38;;;;;;;;;;6114755;23;20018;-82
2023/07/07 11:07:51;;;;;;;2.38;1.38;;;;;;;;;;6116092;23;20339;-81
2023/07/07 11:10:16;;;;;;;2.45;1.25;;;;;;;;;;6115418;23;20021;-82
2023/07/07 11:12:56;;;;;;;2.00;1.38;;;;;;;;;;6115918;23;20018;-83
2023/07/07 11:15:33;;;;;;;1.70;1.40;;;;;;;;;;6115741;23;20598;-81
2023/07/07 11:18:07;;;;;;;1.73;1.50;;;;;;;;;;6116035;23;20018;-82
2023/07/07 11:21:02;;;;;;;3.58;1.52;;;;;;;;;;6116677;23;20024;-82
2023/07/07 11:23:37;;;;;;;2.45;1.63;;;;;;;;;;6096878;23;20018;-84
2023/07/07 11:26:22;;;;;;;1.60;1.50;;;;;;;;;;6115388;23;20056;-83
2023/07/07 11:29:10;;;;;;;2.80;1.40;;;;;;;;;;6115551;23;20046;-82
2023/07/07 11:31:44;;;;;;;3.58;1.73;;;;;;;;;;6116175;23;20231;-81
2023/07/07 11:34:38;;;;;;;3.50;1.60;;;;;;;;;;6115727;23;20022;-83
2023/07/07 11:37:22;;;;;;;2.03;1.48;;;;;;;;;;6116256;23;20010;-81
2023/07/07 11:39:54;;;;;;;1.77;1.40;;;;;;;;;;6097367;23;20096;-81
2023/07/07 11:42:24;;;;;;;2.15;1.38;;;;;;;;;;6208997;23;20016;-81
2023/07/07 11:44:56;;;;;;;1.77;1.23;;;;;;;;;;6206104;23;20016;-82
2023/07/07 11:47:31;;;;;;;1.63;1.23;;;;;;;;;;6207151;23;20453;-80
2023/07/07 11:50:00;;;;;;;1.95;1.25;;;;;;;;;;6206505;23;20066;-82
2023/07/07 11:52:32;;;;;;;2.08;1.48;;;;;;;;;;6207298;23;20016;-82
2023/07/07 11:55:17;;;;;;;3.90;1.38;;;;;;;;;;6206389;23;20013;-82
2023/07/07 11:57:52;;;;;;;1.70;1.20;;;;;;;;;;6207467;23;20016;-82
2023/07/07 12:00:21;;;;;;;2.97;1.45;;;;;;;;;;6205789;23;20091;-81
2023/07/07 12:02:49;;;;;;;2.85;1.70;;;;;;;;;;6208573;23;20020;-80
2023/07/07 12:05:23;;;;;;;1.42;1.08;;;;;;;;;;6207553;23;20012;-81
2023/07/07 12:07:54;;;;;;;1.52;1.30;;;;;;;;;;6209385;23;20028;-82
2023/07/07 12:10:22;;;;;;;2.03;1.20;;;;;;;;;;6208453;23;20017;-82
2023/07/07 12:13:03;;;;;;;11.95;2.45;;;;;;;;;;6208209;23;20016;-83
2023/07/07 12:15:31;;;;;;;3.47;1.73;;;;;;;;;;6206288;23;20023;-82
2023/07/07 12:17:57;;;;;;;2.13;1.40;;;;;;;;;;6207965;23;20058;-82
2023/07/07 12:20:35;;;;;;;2.50;1.50;;;;;;;;;;6207101;23;20474;-82
2023/07/07 12:23:02;;;;;;;1.60;1.35;;;;;;;;;;6204270;23;20070;-83
2023/07/07 12:25:29;;;;;;;2.95;1.40;;;;;;;;;;6208094;23;20012;-81
2023/07/07 12:27:56;;;;;;;1.40;1.30;;;;;;;;;;6206890;23;20114;-81
2023/07/07 12:30:27;;;;;;;1.73;1.15;;;;;;;;;;6207458;23;20411;-81
2023/07/07 12:32:54;;;;;;;2.03;1.42;;;;;;;;;;6208250;23;20082;-81
2023/07/07 12:35:28;;;;;;;1.98;1.27;;;;;;;;;;6208297;23;20315;-81
2023/07/07 12:37:58;;;;;;;1.67;1.58;;;;;;;;;;6205615;23;20477;-79
2023/07/07 12:40:24;;;;;;;;;;;;;;;;;;6206589;23;20017;-81
2023/07/07 12:43:06;;;;;;;4.15;1.27;;;;;;;;;;6207890;23;19924;-80
2023/07/07 12:45:32;;;;;;;3.65;1.80;;;;;;;;;;6205488;23;20013;-80
2023/07/07 12:48:03;;;;;;;1.83;1.42;;;;;;;;;;6206904;23;20016;-81
2023/07/07 12:50:31;;;;;;;2.15;1.20;;;;;;;;;;6206716;23;20013;-81
2023/07/07 12:53:03;;;;;;;2.03;1.83;;;;;;;;;;6207214;23;20525;-81
2023/07/07 12:55:30;;;;;;;1.70;1.20;;;;;;;;;;6208583;23;20019;-81
2023/07/07 12:58:01;;;;;;;2.13;1.60;;;;;;;;;;6207480;23;20024;-78
2023/07/07 13:00:46;;;;;;;1.55;1.35;;;;;;;;;;6206776;23;20017;-80
2023/07/07 13:03:12;;;;;;;1.42;1.23;;;;;;;;;;6207864;23;20315;-79
2023/07/07 13:05:45;;;;;;;1.85;1.40;;;;;;;;;;6208252;23;20012;-80
2023/07/07 13:08:11;;;;;;;1.98;1.23;;;;;;;;;;6207123;23;20016;-82
2023/07/07 13:10:40;;;;;;;2.95;1.23;;;;;;;;;;6206986;23;20115;-85
2023/07/07 13:13:18;;;;;;;1.58;1.10;;;;;;;;;;6204041;23;20058;-80
2023/07/07 13:15:44;;;;;;;3.25;1.40;;;;;;;;;;6206894;23;20116;-81
2023/07/07 13:18:11;;;;;;;3.30;1.50;;;;;;;;;;6207241;23;20092;-81
2023/07/07 13:20:38;;;;;;;2.80;1.63;;;;;;;;;;6206594;23;20024;-81
2023/07/07 13:23:25;;;;;;;2.05;1.33;;;;;;;;;;6206258;23;20013;-80
2023/07/07 13:25:51;;;;;;;2.05;1.40;;;;;;;;;;6204338;23;20039;-81
2023/07/07 13:28:17;;;;;;;3.88;1.48;;;;;;;;;;6206206;23;20020;-83
2023/07/07 13:30:48;;;;;;;3.38;1.40;;;;;;;;;;6205805;23;20008;-82
2023/07/07 13:33:17;;;;;;;2.08;1.10;;;;;;;;;;6204739;23;20039;-85
2023/07/07 13:35:49;;;;;;;2.20;1.33;;;;;;;;;;6204264;23;20489;-83
2023/07/07 13:38:17;;;;;;;1.63;1.50;;;;;;;;;;6204975;23;20025;-81
2023/07/07 13:40:43;;;;;;;2.17;1.50;;;;;;;;;;6204729;23;20096;-81
2023/07/07 13:43:26;;;;;;;2.35;1.45;;;;;;;;;;6203316;23;20013;-80
2023/07/07 13:46:01;;;;;;;1.95;1.20;;;;;;;;;;6206984;23;20415;-82
2023/07/07 13:48:28;;;;;;;1.98;1.27;;;;;;;;;;6180839;23;20021;-82
2023/07/07 13:50:54;;;;;;;2.08;1.50;;;;;;;;;;6204934;23;20036;-83
2023/07/07 13:53:20;;;;;;;3.97;1.30;;;;;;;;;;6206058;23;20013;-81
2023/07/07 13:55:48;;;;;;;2.45;1.50;;;;;;;;;;6205298;23;20729;-81
2023/07/07 13:58:16;;;;;;;1.90;1.27;;;;;;;;;;6207096;23;20024;-83
2023/07/07 14:00:42;;;;;;;2.28;1.45;;;;;;;;;;6206121;23;20016;-81
2023/07/07 14:03:15;;;;;;;2.45;1.35;;;;;;;;;;6205834;23;20088;-81
2023/07/07 14:05:42;;;;;;;2.05;1.50;;;;;;;;;;6208776;23;20043;-81
2023/07/07 14:08:13;;;;;;;2.03;1.10;;;;;;;;;;6209083;23;20012;-81
2023/07/07 14:10:42;;;;;;;2.53;1.50;;;;;;;;;;6207366;23;20013;-81
2023/07/07 14:13:18;;;;;;;2.67;1.50;;;;;;;;;;6207926;23;20031;-81
2023/07/07 14:15:54;;;;;;;2.15;1.30;;;;;;;;;;6207731;23;20346;-83
2023/07/07 14:18:23;;;;;;;1.48;1.23;;;;;;;;;;6207086;23;20043;-81
2023/07/07 14:20:50;;;;;;;2.65;1.50;;;;;;;;;;6207694;23;20021;-82
2023/07/07 14:23:17;;;;;;;2.17;1.35;;;;;;;;;;6209391;23;20358;-81
2023/07/07 14:25:44;;;;;;;1.95;1.10;;;;;;;;;;6208873;23;20063;-81
2023/07/07 14:28:13;;;;;;;2.08;1.50;;;;;;;;;;6208117;23;20016;-84
2023/07/07 14:30:45;;;;;;;2.08;1.38;;;;;;;;;;6209543;23;20012;-81
2023/07/07 14:33:11;;;;;;;2.63;1.73;;;;;;;;;;6207008;23;20044;-80
2023/07/07 14:35:40;;;;;;;3.40;1.42;;;;;;;;;;6207361;23;20438;-81
2023/07/07 14:38:23;;;;;;;2.17;1.20;;;;;;;;;;6206489;23;20476;-81
2023/07/07 14:40:49;;;;;;;1.92;1.13;;;;;;;;;;6207549;23;20027;-83
2023/07/07 14:43:17;;;;;;;2.78;1.75;;;;;;;;;;6206795;23;20017;-81
2023/07/07 14:45:43;;;;;;;2.70;1.60;;;;;;;;;;6204429;23;20070;-81
2023/07/07 14:48:19;;;;;;;1.55;1.25;;;;;;;;;;6207480;23;20020;-84
2023/07/07 14:50:45;;;;;;;1.63;1.52;;;;;;;;;;6204285;23;20028;-87
2023/07/07 14:53:17;;;;;;;2.22;1.50;;;;;;;;;;6206378;23;20024;-84
2023/07/07 14:55:50;;;;;;;1.52;1.38;;;;;;;;;;6207596;23;20091;-81
2023/07/07 14:58:18;;;;;;;2.30;1.73;;;;;;;;;;6207227;23;20024;-81
2023/07/07 15:00:45;;;;;;;4.07;1.58;;;;;;;;;;6209868;23;20013;-83
2023/07/07 15:03:27;;;;;;;1.90;1.75;;;;;;;;;;6208564;23;20088;-83
2023/07/07 15:06:00;;;;;;;1.70;1.20;;;;;;;;;;6208862;23;20324;-83
2023/07/07 15:08:29;;;;;;;1.60;1.17;;;;;;;;;;6206342;23;20080;-82
2023/07/07 15:10:56;;;;;;;2.80;1.70;;;;;;;;;;6206424;23;20256;-83
2023/07/07 15:13:22;;;;;;;2.58;1.52;;;;;;;;;;6208382;23;20043;-83
2023/07/07 15:15:49;;;;;;;2.15;1.65;;;;;;;;;;6208821;23;20024;-84
2023/07/07 15:18:15;;;;;;;1.90;1.33;;;;;;;;;;6208659;23;20095;-84
2023/07/07 15:20:44;;;;;;;1.50;1.40;;;;;;;;;;6206567;23;20012;-83
2023/07/07 15:23:10;;;;;;;2.55;1.60;;;;;;;;;;6207419;23;20020;-83
2023/07/07 15:25:36;;;;;;;3.10;1.40;;;;;;;;;;6205999;23;20514;-82
2023/07/07 15:28:02;;;;;;;3.00;1.45;;;;;;;;;;6207595;23;20020;-85
2023/07/07 15:30:29;;;;;;;2.05;1.20;;;;;;;;;;6209500;23;20031;-84
2023/07/07 15:32:55;;;;;;;3.08;1.52;;;;;;;;;;6208615;23;20343;-82
2023/07/07 15:35:21;;;;;;;1.60;1.20;;;;;;;;;;6208424;23;20016;-92
2023/07/07 15:37:47;;;;;;;1.48;1.23;;;;;;;;;;6208499;23;20023;-84
2023/07/07 15:40:17;;;;;;;2.60;1.40;;;;;;;;;;6207744;23;20087;-85
2023/07/07 15:42:43;;;;;;;;;;;;;;;;;;6209465;23;20067;-85
2023/07/07 15:45:11;;;;;;;2.70;1.42;;;;;;;;;;6208557;23;19913;-85
2023/07/07 15:47:37;;;;;;;2.60;1.48;;;;;;;;;;6208497;23;20112;-85
2023/07/07 15:50:09;;;;;;;1.83;1.23;;;;;;;;;;6206487;23;20013;-85
2023/07/07 15:52:35;;;;;;;1.73;1.48;;;;;;;;;;6207167;23;20027;-85
2023/07/07 15:55:01;;;;;;;1.50;1.23;;;;;;;;;;6206359;23;20016;-85
2023/07/07 15:57:27;;;;;;;3.38;1.52;;;;;;;;;;6206833;23;20020;-83
2023/07/07 15:59:53;;;;;;;1.75;1.40;;;;;;;;;;6208517;23;20012;-83
2023/07/07 16:02:26;;;;;;;1.85;1.58;;;;;;;;;;6208010;23;20035;-83
2023/07/07 16:04:52;;;;;;;1.77;1.38;;;;;;;;;;6206949;23;20020;-84
2023/07/07 16:07:19;;;;;;;5.63;1.60;;;;;;;;;;6205730;23;20012;-83
2023/07/07 16:09:45;;;;;;;2.92;1.60;;;;;;;;;;6206231;23;20052;-84
2023/07/07 16:12:14;;;;;;;3.83;1.52;;;;;;;;;;6205422;23;20063;-83
2023/07/07 16:14:40;;;;;;;2.60;1.45;;;;;;;;;;6208685;23;20012;-84
2023/07/07 16:17:13;;;;;;;1.77;1.20;;;;;;;;;;6207189;23;20019;-85
2023/07/07 16:19:39;;;;;;;5.15;1.50;;;;;;;;;;6205966;23;20028;-84
2023/07/07 16:22:09;;;;;;;3.47;1.70;;;;;;;;;;6207779;23;20019;-84
2023/07/07 16:24:35;;;;;;;3.15;1.70;;;;;;;;;;6206771;23;20012;-85
2023/07/07 16:27:01;;;;;;;1.88;1.42;;;;;;;;;;6203993;23;20020;-84
2023/07/07 16:29:27;;;;;;;3.53;1.65;;;;;;;;;;6205869;23;20079;-84
2023/07/07 16:31:53;;;;;;;2.92;1.60;;;;;;;;;;6209210;23;20012;-84
2023/07/07 16:34:19;;;;;;;1.73;1.63;;;;;;;;;;6206125;23;20020;-83
2023/07/07 16:36:46;;;;;;;2.83;1.40;;;;;;;;;;6207987;23;20044;-84
2023/07/07 16:39:13;;;;;;;2.75;1.50;;;;;;;;;;6206708;23;20020;-85
2023/07/07 16:41:39;;;;;;;1.67;1.48;;;;;;;;;;6207943;23;20441;-84
2023/07/07 16:44:05;;;;;;;1.70;1.42;;;;;;;;;;6206629;23;20023;-85
2023/07/07 16:46:31;;;;;;;2.08;1.35;;;;;;;;;;6207061;23;20012;-84
2023/07/07 16:48:58;;;;;;;2.15;1.73;;;;;;;;;;6205839;23;20035;-85
2023/07/07 16:51:25;;;;;;;1.40;1.10;;;;;;;;;;6208568;23;20215;-84
2023/07/07 16:53:52;;;;;;;2.47;1.67;;;;;;;;;;6208282;23;20075;-84
2023/07/07 16:56:29;;;;;;;2.50;1.60;;;;;;;;;;6207331;23;20051;-82
2023/07/07 16:58:55;;;;;;;2.70;1.30;;;;;;;;;;6208287;23;20492;-85
2023/07/07 17:01:21;;;;;;;1.55;1.27;;;;;;;;;;6208182;23;20513;-85
2023/07/07 17:03:47;;;;;;;1.55;1.35;;;;;;;;;;6206110;23;20013;-84
2023/07/07 17:06:19;;;;;;;1.80;1.70;;;;;;;;;;6207939;23;20015;-86
2023/07/07 17:08:45;;;;;;;1.67;1.40;;;;;;;;;;6207516;23;20334;-86
2023/07/07 17:11:12;;;;;;;2.00;1.60;;;;;;;;;;6205873;23;20469;-90
2023/07/07 17:13:39;;;;;;;2.95;1.50;;;;;;;;;;6207002;23;20016;-86
2023/07/07 17:16:11;;;;;;;2.83;1.55;;;;;;;;;;6207469;23;20087;-90
2023/07/07 17:18:37;;;;;;;1.70;1.55;;;;;;;;;;6204005;23;20019;-90
2023/07/07 17:21:03;;;;;;;2.75;1.85;;;;;;;;;;6204522;23;20066;-86
2023/07/07 17:23:29;;;;;;;2.03;1.45;;;;;;;;;;6204870;23;20013;-87
2023/07/07 17:25:55;;;;;;;4.97;1.58;;;;;;;;;;6206979;23;20020;-89
2023/07/07 17:28:22;;;;;;;2.17;1.70;;;;;;;;;;6206685;23;20079;-88
2023/07/07 17:30:48;;;;;;;3.10;1.85;;;;;;;;;;6206772;23;20008;-89
2023/07/07 17:33:14;;;;;;;1.65;1.50;;;;;;;;;;6206693;23;20456;-87
2023/07/07 17:35:40;;;;;;;1.42;1.33;;;;;;;;;;6205389;23;20020;-91
2023/07/07 17:38:13;;;;;;;1.67;1.52;;;;;;;;;;6206755;23;20063;-87
2023/07/07 17:40:40;;;;;;;2.22;1.85;;;;;;;;;;6204940;23;20385;-87
2023/07/07 17:43:06;;;;;;;2.33;1.23;;;;;;;;;;6207161;23;20367;-87
2023/07/07 17:45:32;;;;;;;1.73;1.52;;;;;;;;;;6206272;23;20013;-88
2023/07/07 17:47:58;;;;;;;2.75;1.80;;;;;;;;;;6206847;23;20016;-87
2023/07/07 17:50:29;;;;;;;3.05;1.60;;;;;;;;;;6207795;23;20008;-91
2023/07/07 17:52:55;;;;;;;1.77;1.48;;;;;;;;;;6207564;23;20017;-92
2023/07/07 17:55:21;;;;;;;2.65;1.73;;;;;;;;;;6211864;23;20028;-92
2023/07/07 17:57:48;;;;;;;2.42;1.63;;;;;;;;;;6207546;23;20017;-93
2023/07/07 18:00:14;;;;;;;2.40;1.63;;;;;;;;;;6209163;23;20373;-93
2023/07/07 18:02:40;;;;;;;2.92;1.50;;;;;;;;;;6210674;23;20044;-94
2023/07/07 18:05:06;;;;;;;3.33;1.75;;;;;;;;;;6207626;23;20013;-91
2023/07/07 18:07:32;;;;;;;1.90;1.67;;;;;;;;;;6208467;23;20461;-92
2023/07/07 18:09:58;;;;;;;2.40;1.60;;;;;;;;;;6207147;23;20078;-92
2023/07/07 18:12:25;;;;;;;2.88;1.63;;;;;;;;;;6205857;23;20316;-90
2023/07/07 18:14:51;;;;;;;2.05;1.30;;;;;;;;;;6208147;23;20560;-92
2023/07/07 18:17:17;;;;;;;2.17;1.80;;;;;;;;;;6209133;23;20016;-91
2023/07/07 18:19:43;;;;;;;2.85;1.60;;;;;;;;;;6209457;23;20019;-93
2023/07/07 18:22:12;;;;;;;2.10;1.42;;;;;;;;;;6207381;23;20027;-92
2023/07/07 18:24:38;;;;;;;2.13;1.70;;;;;;;;;;6208569;23;20019;-94
2023/07/07 18:27:05;;;;;;;2.72;1.40;;;;;;;;;;6211020;23;20017;-92
2023/07/07 18:29:31;;;;;;;2.35;1.30;;;;;;;;;;6184050;23;20059;-92
2023/07/07 18:31:57;;;;;;;1.90;1.23;;;;;;;;;;6207666;23;20040;-91